sensor_id;sensor_type;location;lat;lon;timestamp;P1;durP1;ratioP1;P2;durP2;ratioP2
39738;SDS011;25422;48.286;8.484;2022-12-29T00:02:22;2.97;;;1.52;;
39738;SDS011;25422;48.286;8.484;2022-12-29T00:04:51;3.08;;;1.70;;
39738;SDS011;25422;48.286;8.484;2022-12-29T00:07:16;3.13;;;1.45;;
39738;SDS011;25422;48.286;8.484;2022-12-29T00:09:42;4.00;;;1.88;;
39738;SDS011;25422;48.286;8.484;2022-12-29T00:12:07;4.80;;;2.20;;
39738;SDS011;25422;48.286;8.484;2022-12-29T00:14:33;4.07;;;2.17;;
39738;SDS011;25422;48.286;8.484;2022-12-29T00:17:17;3.33;;;1.38;;
39738;SDS011;25422;48.286;8.484;2022-12-29T00:19:42;5.13;;;1.70;;
39738;SDS011;25422;48.286;8.484;2022-12-29T00:22:26;7.40;;;2.03;;
39738;SDS011;25422;48.286;8.484;2022-12-29T00:25:11;2.22;;;1.60;;
39738;SDS011;25422;48.286;8.484;2022-12-29T00:27:56;4.00;;;2.17;;
39738;SDS011;25422;48.286;8.484;2022-12-29T00:30:41;7.63;;;1.80;;
39738;SDS011;25422;48.286;8.484;2022-12-29T00:33:30;7.75;;;2.47;;
39738;SDS011;25422;48.286;8.484;2022-12-29T00:38:52;1.98;;;1.20;;
39738;SDS011;25422;48.286;8.484;2022-12-29T00:41:39;2.47;;;1.73;;
39738;SDS011;25422;48.286;8.484;2022-12-29T00:44:24;3.35;;;1.30;;
39738;SDS011;25422;48.286;8.484;2022-12-29T00:46:49;3.55;;;1.42;;
39738;SDS011;25422;48.286;8.484;2022-12-29T00:49:14;3.50;;;1.25;;
39738;SDS011;25422;48.286;8.484;2022-12-29T00:51:56;1.70;;;1.10;;
39738;SDS011;25422;48.286;8.484;2022-12-29T00:54:23;3.13;;;1.10;;
39738;SDS011;25422;48.286;8.484;2022-12-29T00:56:49;2.47;;;1.08;;
39738;SDS011;25422;48.286;8.484;2022-12-29T00:59:16;3.38;;;1.10;;
39738;SDS011;25422;48.286;8.484;2022-12-29T01:01:44;5.25;;;1.10;;
39738;SDS011;25422;48.286;8.484;2022-12-29T01:04:10;2.80;;;1.23;;
39738;SDS011;25422;48.286;8.484;2022-12-29T01:06:37;6.05;;;3.15;;
39738;SDS011;25422;48.286;8.484;2022-12-29T01:09:04;5.15;;;2.00;;
39738;SDS011;25422;48.286;8.484;2022-12-29T01:11:49;1.85;;;1.17;;
39738;SDS011;25422;48.286;8.484;2022-12-29T01:14:15;4.25;;;1.30;;
39738;SDS011;25422;48.286;8.484;2022-12-29T01:16:41;1.60;;;1.13;;
39738;SDS011;25422;48.286;8.484;2022-12-29T01:19:06;1.38;;;1.00;;
39738;SDS011;25422;48.286;8.484;2022-12-29T01:21:32;3.75;;;1.15;;
39738;SDS011;25422;48.286;8.484;2022-12-29T01:23:58;1.77;;;1.10;;
39738;SDS011;25422;48.286;8.484;2022-12-29T01:26:23;2.78;;;1.30;;
39738;SDS011;25422;48.286;8.484;2022-12-29T01:28:50;4.15;;;1.40;;
39738;SDS011;25422;48.286;8.484;2022-12-29T01:31:16;2.58;;;1.20;;
39738;SDS011;25422;48.286;8.484;2022-12-29T01:33:42;3.33;;;1.30;;
39738;SDS011;25422;48.286;8.484;2022-12-29T01:36:09;3.78;;;1.10;;
39738;SDS011;25422;48.286;8.484;2022-12-29T01:38:37;2.78;;;1.23;;
39738;SDS011;25422;48.286;8.484;2022-12-29T01:41:04;3.10;;;1.27;;
39738;SDS011;25422;48.286;8.484;2022-12-29T01:46:28;6.22;;;1.50;;
39738;SDS011;25422;48.286;8.484;2022-12-29T01:49:22;3.38;;;1.30;;
39738;SDS011;25422;48.286;8.484;2022-12-29T01:51:52;3.20;;;1.30;;
39738;SDS011;25422;48.286;8.484;2022-12-29T01:54:26;3.28;;;1.13;;
39738;SDS011;25422;48.286;8.484;2022-12-29T01:56:55;3.17;;;1.42;;
39738;SDS011;25422;48.286;8.484;2022-12-29T01:59:24;4.40;;;1.20;;
39738;SDS011;25422;48.286;8.484;2022-12-29T02:01:54;3.08;;;1.50;;
39738;SDS011;25422;48.286;8.484;2022-12-29T02:04:20;4.15;;;1.48;;
39738;SDS011;25422;48.286;8.484;2022-12-29T02:06:59;3.15;;;1.77;;
39738;SDS011;25422;48.286;8.484;2022-12-29T02:09:28;4.57;;;1.27;;
39738;SDS011;25422;48.286;8.484;2022-12-29T02:11:54;1.30;;;1.20;;
39738;SDS011;25422;48.286;8.484;2022-12-29T02:14:19;2.90;;;1.42;;
39738;SDS011;25422;48.286;8.484;2022-12-29T02:25:00;3.75;;;1.67;;
39738;SDS011;25422;48.286;8.484;2022-12-29T02:33:34;1.92;;;1.25;;
39738;SDS011;25422;48.286;8.484;2022-12-29T02:36:24;2.90;;;1.40;;
39738;SDS011;25422;48.286;8.484;2022-12-29T02:39:06;5.03;;;1.50;;
39738;SDS011;25422;48.286;8.484;2022-12-29T02:41:45;1.63;;;1.40;;
39738;SDS011;25422;48.286;8.484;2022-12-29T02:44:15;2.28;;;1.40;;
39738;SDS011;25422;48.286;8.484;2022-12-29T02:46:53;5.07;;;1.70;;
39738;SDS011;25422;48.286;8.484;2022-12-29T02:49:33;3.80;;;1.60;;
39738;SDS011;25422;48.286;8.484;2022-12-29T02:52:20;6.55;;;1.70;;
39738;SDS011;25422;48.286;8.484;2022-12-29T02:54:53;3.00;;;1.52;;
39738;SDS011;25422;48.286;8.484;2022-12-29T02:59:46;1.98;;;1.30;;
39738;SDS011;25422;48.286;8.484;2022-12-29T03:08:36;4.10;;;2.17;;
39738;SDS011;25422;48.286;8.484;2022-12-29T03:11:13;3.38;;;2.13;;
39738;SDS011;25422;48.286;8.484;2022-12-29T03:16:59;4.50;;;1.70;;
39738;SDS011;25422;48.286;8.484;2022-12-29T03:19:35;3.38;;;1.77;;
39738;SDS011;25422;48.286;8.484;2022-12-29T03:22:08;2.90;;;1.63;;
39738;SDS011;25422;48.286;8.484;2022-12-29T03:25:01;5.38;;;2.10;;
39738;SDS011;25422;48.286;8.484;2022-12-29T03:27:35;4.75;;;1.98;;
39738;SDS011;25422;48.286;8.484;2022-12-29T03:30:05;2.05;;;1.60;;
39738;SDS011;25422;48.286;8.484;2022-12-29T03:32:33;4.28;;;2.25;;
39738;SDS011;25422;48.286;8.484;2022-12-29T03:35:06;3.00;;;1.70;;
39738;SDS011;25422;48.286;8.484;2022-12-29T03:37:36;3.38;;;1.80;;
39738;SDS011;25422;48.286;8.484;2022-12-29T03:40:06;2.05;;;1.65;;
39738;SDS011;25422;48.286;8.484;2022-12-29T03:42:33;3.05;;;1.80;;
39738;SDS011;25422;48.286;8.484;2022-12-29T03:45:01;4.28;;;1.90;;
39738;SDS011;25422;48.286;8.484;2022-12-29T03:47:31;4.05;;;1.88;;
39738;SDS011;25422;48.286;8.484;2022-12-29T03:49:57;2.97;;;1.85;;
39738;SDS011;25422;48.286;8.484;2022-12-29T03:52:22;2.80;;;1.92;;
39738;SDS011;25422;48.286;8.484;2022-12-29T03:54:50;2.40;;;1.50;;
39738;SDS011;25422;48.286;8.484;2022-12-29T03:57:15;4.50;;;1.95;;
39738;SDS011;25422;48.286;8.484;2022-12-29T03:59:52;3.00;;;2.10;;
39738;SDS011;25422;48.286;8.484;2022-12-29T04:02:17;4.07;;;2.20;;
39738;SDS011;25422;48.286;8.484;2022-12-29T04:04:43;7.20;;;2.05;;
39738;SDS011;25422;48.286;8.484;2022-12-29T04:07:09;2.08;;;1.50;;
39738;SDS011;25422;48.286;8.484;2022-12-29T04:09:34;1.60;;;1.50;;
39738;SDS011;25422;48.286;8.484;2022-12-29T04:12:01;6.15;;;1.98;;
39738;SDS011;25422;48.286;8.484;2022-12-29T04:14:27;3.70;;;1.38;;
39738;SDS011;25422;48.286;8.484;2022-12-29T04:16:52;6.70;;;1.67;;
39738;SDS011;25422;48.286;8.484;2022-12-29T04:19:18;3.63;;;1.80;;
39738;SDS011;25422;48.286;8.484;2022-12-29T04:21:44;2.33;;;1.63;;
39738;SDS011;25422;48.286;8.484;2022-12-29T04:24:10;2.47;;;1.40;;
39738;SDS011;25422;48.286;8.484;2022-12-29T04:26:39;5.15;;;1.70;;
39738;SDS011;25422;48.286;8.484;2022-12-29T04:29:27;3.00;;;1.70;;
39738;SDS011;25422;48.286;8.484;2022-12-29T04:32:07;5.90;;;2.17;;
39738;SDS011;25422;48.286;8.484;2022-12-29T04:34:36;2.30;;;1.50;;
39738;SDS011;25422;48.286;8.484;2022-12-29T04:37:02;4.70;;;1.67;;
39738;SDS011;25422;48.286;8.484;2022-12-29T04:39:27;3.42;;;1.77;;
39738;SDS011;25422;48.286;8.484;2022-12-29T04:41:53;2.05;;;1.38;;
39738;SDS011;25422;48.286;8.484;2022-12-29T04:44:20;5.97;;;3.60;;
39738;SDS011;25422;48.286;8.484;2022-12-29T04:47:04;2.90;;;1.83;;
39738;SDS011;25422;48.286;8.484;2022-12-29T04:49:49;3.72;;;1.88;;
39738;SDS011;25422;48.286;8.484;2022-12-29T04:52:38;1.85;;;1.27;;
39738;SDS011;25422;48.286;8.484;2022-12-29T04:55:04;2.75;;;1.63;;
39738;SDS011;25422;48.286;8.484;2022-12-29T04:57:30;4.55;;;2.40;;
39738;SDS011;25422;48.286;8.484;2022-12-29T04:59:58;2.05;;;1.85;;
39738;SDS011;25422;48.286;8.484;2022-12-29T05:02:23;2.35;;;1.52;;
39738;SDS011;25422;48.286;8.484;2022-12-29T05:04:50;1.92;;;1.67;;
39738;SDS011;25422;48.286;8.484;2022-12-29T05:07:16;3.30;;;1.40;;
39738;SDS011;25422;48.286;8.484;2022-12-29T05:09:43;3.47;;;1.50;;
39738;SDS011;25422;48.286;8.484;2022-12-29T05:12:09;3.30;;;1.60;;
39738;SDS011;25422;48.286;8.484;2022-12-29T05:14:39;4.22;;;1.60;;
39738;SDS011;25422;48.286;8.484;2022-12-29T05:17:04;1.77;;;1.65;;
39738;SDS011;25422;48.286;8.484;2022-12-29T05:19:30;3.20;;;1.33;;
39738;SDS011;25422;48.286;8.484;2022-12-29T05:21:56;3.25;;;1.33;;
39738;SDS011;25422;48.286;8.484;2022-12-29T05:24:22;1.63;;;1.52;;
39738;SDS011;25422;48.286;8.484;2022-12-29T05:26:47;2.85;;;1.35;;
39738;SDS011;25422;48.286;8.484;2022-12-29T05:29:38;4.90;;;1.48;;
39738;SDS011;25422;48.286;8.484;2022-12-29T05:32:04;2.50;;;1.33;;
39738;SDS011;25422;48.286;8.484;2022-12-29T05:34:30;1.73;;;1.25;;
39738;SDS011;25422;48.286;8.484;2022-12-29T05:36:55;2.25;;;1.20;;
39738;SDS011;25422;48.286;8.484;2022-12-29T05:39:22;2.05;;;1.33;;
39738;SDS011;25422;48.286;8.484;2022-12-29T05:41:53;2.45;;;1.40;;
39738;SDS011;25422;48.286;8.484;2022-12-29T05:44:26;1.40;;;1.30;;
39738;SDS011;25422;48.286;8.484;2022-12-29T05:47:08;2.22;;;1.40;;
39738;SDS011;25422;48.286;8.484;2022-12-29T05:49:43;3.55;;;1.60;;
39738;SDS011;25422;48.286;8.484;2022-12-29T05:52:26;1.45;;;1.35;;
39738;SDS011;25422;48.286;8.484;2022-12-29T05:54:52;1.98;;;1.25;;
39738;SDS011;25422;48.286;8.484;2022-12-29T05:57:20;3.10;;;1.50;;
39738;SDS011;25422;48.286;8.484;2022-12-29T05:59:53;1.60;;;1.20;;
39738;SDS011;25422;48.286;8.484;2022-12-29T06:02:19;2.95;;;1.50;;
39738;SDS011;25422;48.286;8.484;2022-12-29T06:04:45;2.83;;;1.90;;
39738;SDS011;25422;48.286;8.484;2022-12-29T06:07:10;3.50;;;2.05;;
39738;SDS011;25422;48.286;8.484;2022-12-29T06:09:40;2.40;;;1.40;;
39738;SDS011;25422;48.286;8.484;2022-12-29T06:12:07;1.77;;;1.40;;
39738;SDS011;25422;48.286;8.484;2022-12-29T06:14:32;2.83;;;1.40;;
39738;SDS011;25422;48.286;8.484;2022-12-29T06:16:59;3.08;;;1.50;;
39738;SDS011;25422;48.286;8.484;2022-12-29T06:19:25;2.05;;;1.40;;
39738;SDS011;25422;48.286;8.484;2022-12-29T06:21:50;4.05;;;2.35;;
39738;SDS011;25422;48.286;8.484;2022-12-29T06:24:18;3.97;;;2.72;;
39738;SDS011;25422;48.286;8.484;2022-12-29T06:26:43;4.28;;;2.42;;
39738;SDS011;25422;48.286;8.484;2022-12-29T06:29:09;7.07;;;2.85;;
39738;SDS011;25422;48.286;8.484;2022-12-29T06:31:34;3.90;;;1.88;;
39738;SDS011;25422;48.286;8.484;2022-12-29T06:34:00;9.45;;;5.22;;
39738;SDS011;25422;48.286;8.484;2022-12-29T06:36:26;4.93;;;3.42;;
39738;SDS011;25422;48.286;8.484;2022-12-29T06:38:51;2.72;;;1.80;;
39738;SDS011;25422;48.286;8.484;2022-12-29T06:41:18;5.13;;;1.80;;
39738;SDS011;25422;48.286;8.484;2022-12-29T06:44:13;2.05;;;1.25;;
39738;SDS011;25422;48.286;8.484;2022-12-29T06:47:00;2.60;;;1.40;;
39738;SDS011;25422;48.286;8.484;2022-12-29T06:49:25;5.55;;;2.22;;
39738;SDS011;25422;48.286;8.484;2022-12-29T06:51:51;3.25;;;1.50;;
39738;SDS011;25422;48.286;8.484;2022-12-29T06:54:16;1.60;;;1.20;;
39738;SDS011;25422;48.286;8.484;2022-12-29T06:56:41;4.88;;;1.48;;
39738;SDS011;25422;48.286;8.484;2022-12-29T06:59:07;2.85;;;1.30;;
39738;SDS011;25422;48.286;8.484;2022-12-29T07:01:34;4.05;;;1.38;;
39738;SDS011;25422;48.286;8.484;2022-12-29T07:04:00;2.47;;;1.58;;
39738;SDS011;25422;48.286;8.484;2022-12-29T07:06:26;2.97;;;1.92;;
39738;SDS011;25422;48.286;8.484;2022-12-29T07:08:52;3.38;;;1.77;;
39738;SDS011;25422;48.286;8.484;2022-12-29T07:11:20;2.65;;;1.55;;
39738;SDS011;25422;48.286;8.484;2022-12-29T07:13:46;2.75;;;1.58;;
39738;SDS011;25422;48.286;8.484;2022-12-29T07:16:12;4.03;;;2.35;;
39738;SDS011;25422;48.286;8.484;2022-12-29T07:18:37;1.98;;;1.63;;
39738;SDS011;25422;48.286;8.484;2022-12-29T07:21:03;4.93;;;2.40;;
39738;SDS011;25422;48.286;8.484;2022-12-29T07:23:29;3.13;;;1.88;;
39738;SDS011;25422;48.286;8.484;2022-12-29T07:26:04;5.45;;;2.30;;
39738;SDS011;25422;48.286;8.484;2022-12-29T07:28:32;4.53;;;1.88;;
39738;SDS011;25422;48.286;8.484;2022-12-29T07:30:58;3.55;;;2.00;;
39738;SDS011;25422;48.286;8.484;2022-12-29T07:33:24;2.65;;;1.58;;
39738;SDS011;25422;48.286;8.484;2022-12-29T07:35:49;2.40;;;1.38;;
39738;SDS011;25422;48.286;8.484;2022-12-29T07:38:15;2.10;;;1.55;;
39738;SDS011;25422;48.286;8.484;2022-12-29T07:40:41;1.90;;;1.25;;
39738;SDS011;25422;48.286;8.484;2022-12-29T07:43:07;2.17;;;1.40;;
39738;SDS011;25422;48.286;8.484;2022-12-29T07:45:39;3.55;;;1.80;;
39738;SDS011;25422;48.286;8.484;2022-12-29T07:48:07;3.47;;;1.48;;
39738;SDS011;25422;48.286;8.484;2022-12-29T07:50:36;1.98;;;1.25;;
39738;SDS011;25422;48.286;8.484;2022-12-29T07:53:02;5.27;;;2.67;;
39738;SDS011;25422;48.286;8.484;2022-12-29T07:55:28;3.53;;;1.80;;
39738;SDS011;25422;48.286;8.484;2022-12-29T07:57:54;1.95;;;1.38;;
39738;SDS011;25422;48.286;8.484;2022-12-29T08:00:20;10.32;;;5.70;;
39738;SDS011;25422;48.286;8.484;2022-12-29T08:02:45;18.48;;;12.00;;
39738;SDS011;25422;48.286;8.484;2022-12-29T08:05:11;4.30;;;3.03;;
39738;SDS011;25422;48.286;8.484;2022-12-29T08:07:37;2.20;;;1.63;;
39738;SDS011;25422;48.286;8.484;2022-12-29T08:10:02;3.42;;;1.83;;
39738;SDS011;25422;48.286;8.484;2022-12-29T08:12:28;9.80;;;5.28;;
39738;SDS011;25422;48.286;8.484;2022-12-29T08:14:53;3.30;;;1.83;;
39738;SDS011;25422;48.286;8.484;2022-12-29T08:17:19;3.72;;;2.00;;
39738;SDS011;25422;48.286;8.484;2022-12-29T08:19:44;3.33;;;1.67;;
39738;SDS011;25422;48.286;8.484;2022-12-29T08:22:10;3.33;;;1.20;;
39738;SDS011;25422;48.286;8.484;2022-12-29T08:24:35;4.22;;;1.50;;
39738;SDS011;25422;48.286;8.484;2022-12-29T08:27:00;2.35;;;1.40;;
39738;SDS011;25422;48.286;8.484;2022-12-29T08:29:26;2.13;;;1.50;;
39738;SDS011;25422;48.286;8.484;2022-12-29T08:31:52;3.13;;;1.38;;
39738;SDS011;25422;48.286;8.484;2022-12-29T08:34:17;3.67;;;1.50;;
39738;SDS011;25422;48.286;8.484;2022-12-29T08:36:43;3.20;;;1.63;;
39738;SDS011;25422;48.286;8.484;2022-12-29T08:39:08;5.28;;;1.73;;
39738;SDS011;25422;48.286;8.484;2022-12-29T08:41:34;3.22;;;1.40;;
39738;SDS011;25422;48.286;8.484;2022-12-29T08:43:59;4.70;;;1.63;;
39738;SDS011;25422;48.286;8.484;2022-12-29T08:46:25;2.00;;;1.42;;
39738;SDS011;25422;48.286;8.484;2022-12-29T08:48:50;3.47;;;2.35;;
39738;SDS011;25422;48.286;8.484;2022-12-29T08:51:16;6.05;;;2.30;;
39738;SDS011;25422;48.286;8.484;2022-12-29T08:53:42;4.45;;;2.05;;
39738;SDS011;25422;48.286;8.484;2022-12-29T08:56:08;2.83;;;1.70;;
39738;SDS011;25422;48.286;8.484;2022-12-29T08:58:44;4.03;;;2.40;;
39738;SDS011;25422;48.286;8.484;2022-12-29T09:01:10;3.00;;;2.25;;
39738;SDS011;25422;48.286;8.484;2022-12-29T09:03:36;10.73;;;4.50;;
39738;SDS011;25422;48.286;8.484;2022-12-29T09:06:01;7.20;;;4.05;;
39738;SDS011;25422;48.286;8.484;2022-12-29T09:08:27;5.63;;;2.90;;
39738;SDS011;25422;48.286;8.484;2022-12-29T09:10:52;3.95;;;1.73;;
39738;SDS011;25422;48.286;8.484;2022-12-29T09:13:18;2.58;;;1.70;;
39738;SDS011;25422;48.286;8.484;2022-12-29T09:15:44;1.73;;;1.45;;
39738;SDS011;25422;48.286;8.484;2022-12-29T09:18:10;2.63;;;1.60;;
39738;SDS011;25422;48.286;8.484;2022-12-29T09:20:36;2.75;;;1.50;;
39738;SDS011;25422;48.286;8.484;2022-12-29T09:23:05;3.30;;;1.60;;
39738;SDS011;25422;48.286;8.484;2022-12-29T09:25:31;1.40;;;1.30;;
39738;SDS011;25422;48.286;8.484;2022-12-29T09:27:57;2.25;;;1.40;;
39738;SDS011;25422;48.286;8.484;2022-12-29T09:30:22;2.30;;;1.50;;
39738;SDS011;25422;48.286;8.484;2022-12-29T09:32:48;2.40;;;1.45;;
39738;SDS011;25422;48.286;8.484;2022-12-29T09:35:14;2.90;;;1.80;;
39738;SDS011;25422;48.286;8.484;2022-12-29T09:37:40;3.15;;;2.10;;
39738;SDS011;25422;48.286;8.484;2022-12-29T09:40:06;3.78;;;1.50;;
39738;SDS011;25422;48.286;8.484;2022-12-29T09:47:36;2.78;;;1.55;;
39738;SDS011;25422;48.286;8.484;2022-12-29T09:50:04;2.33;;;1.50;;
39738;SDS011;25422;48.286;8.484;2022-12-29T09:52:36;3.08;;;1.45;;
39738;SDS011;25422;48.286;8.484;2022-12-29T09:55:14;3.38;;;1.50;;
39738;SDS011;25422;48.286;8.484;2022-12-29T09:57:46;2.50;;;1.30;;
39738;SDS011;25422;48.286;8.484;2022-12-29T10:00:14;3.33;;;1.80;;
39738;SDS011;25422;48.286;8.484;2022-12-29T10:02:49;2.22;;;1.90;;
39738;SDS011;25422;48.286;8.484;2022-12-29T10:10:57;4.47;;;2.38;;
39738;SDS011;25422;48.286;8.484;2022-12-29T10:13:37;3.28;;;2.22;;
39738;SDS011;25422;48.286;8.484;2022-12-29T10:16:26;2.80;;;1.70;;
39738;SDS011;25422;48.286;8.484;2022-12-29T10:25:09;3.38;;;1.63;;
39738;SDS011;25422;48.286;8.484;2022-12-29T10:27:40;3.35;;;1.80;;
39738;SDS011;25422;48.286;8.484;2022-12-29T10:30:10;2.45;;;1.77;;
39738;SDS011;25422;48.286;8.484;2022-12-29T10:32:38;4.90;;;1.83;;
39738;SDS011;25422;48.286;8.484;2022-12-29T10:35:20;6.47;;;2.60;;
39738;SDS011;25422;48.286;8.484;2022-12-29T10:43:33;3.55;;;1.90;;
39738;SDS011;25422;48.286;8.484;2022-12-29T10:46:09;4.13;;;2.58;;
39738;SDS011;25422;48.286;8.484;2022-12-29T10:48:38;4.65;;;2.35;;
39738;SDS011;25422;48.286;8.484;2022-12-29T10:51:04;3.35;;;1.90;;
39738;SDS011;25422;48.286;8.484;2022-12-29T10:53:43;5.13;;;1.70;;
39738;SDS011;25422;48.286;8.484;2022-12-29T10:56:25;2.72;;;1.70;;
39738;SDS011;25422;48.286;8.484;2022-12-29T10:58:58;4.55;;;1.85;;
39738;SDS011;25422;48.286;8.484;2022-12-29T11:01:31;1.77;;;1.52;;
39738;SDS011;25422;48.286;8.484;2022-12-29T11:04:08;1.67;;;1.38;;
39738;SDS011;25422;48.286;8.484;2022-12-29T11:06:45;2.33;;;1.90;;
39738;SDS011;25422;48.286;8.484;2022-12-29T11:09:15;3.47;;;1.98;;
39738;SDS011;25422;48.286;8.484;2022-12-29T11:11:46;4.30;;;1.80;;
39738;SDS011;25422;48.286;8.484;2022-12-29T11:14:13;2.33;;;1.70;;
39738;SDS011;25422;48.286;8.484;2022-12-29T11:16:42;3.78;;;1.67;;
39738;SDS011;25422;48.286;8.484;2022-12-29T11:19:20;3.17;;;1.98;;
39738;SDS011;25422;48.286;8.484;2022-12-29T11:21:49;3.30;;;1.80;;
39738;SDS011;25422;48.286;8.484;2022-12-29T11:24:23;8.55;;;2.97;;
39738;SDS011;25422;48.286;8.484;2022-12-29T11:26:54;3.42;;;2.20;;
39738;SDS011;25422;48.286;8.484;2022-12-29T11:29:40;10.20;;;4.15;;
39738;SDS011;25422;48.286;8.484;2022-12-29T11:32:41;2.75;;;2.30;;
39738;SDS011;25422;48.286;8.484;2022-12-29T11:34:58;4.78;;;3.55;;
39738;SDS011;25422;48.286;8.484;2022-12-29T11:37:57;5.68;;;3.40;;
39738;SDS011;25422;48.286;8.484;2022-12-29T11:40:21;5.47;;;2.85;;
39738;SDS011;25422;48.286;8.484;2022-12-29T11:45:30;4.97;;;3.80;;
39738;SDS011;25422;48.286;8.484;2022-12-29T11:48:06;7.07;;;4.07;;
39738;SDS011;25422;48.286;8.484;2022-12-29T11:50:35;16.90;;;5.68;;
39738;SDS011;25422;48.286;8.484;2022-12-29T11:55:29;15.57;;;7.25;;
39738;SDS011;25422;48.286;8.484;2022-12-29T11:57:57;6.88;;;4.93;;
39738;SDS011;25422;48.286;8.484;2022-12-29T12:00:27;3.75;;;3.22;;
39738;SDS011;25422;48.286;8.484;2022-12-29T12:02:59;4.32;;;3.00;;
39738;SDS011;25422;48.286;8.484;2022-12-29T12:05:40;4.53;;;2.55;;
39738;SDS011;25422;48.286;8.484;2022-12-29T12:08:28;4.00;;;2.35;;
39738;SDS011;25422;48.286;8.484;2022-12-29T12:11:06;5.07;;;2.50;;
39738;SDS011;25422;48.286;8.484;2022-12-29T12:13:42;5.75;;;2.78;;
39738;SDS011;25422;48.286;8.484;2022-12-29T12:16:43;5.50;;;3.00;;
39738;SDS011;25422;48.286;8.484;2022-12-29T12:19:14;3.93;;;3.37;;
39738;SDS011;25422;48.286;8.484;2022-12-29T12:22:03;4.75;;;3.20;;
39738;SDS011;25422;48.286;8.484;2022-12-29T12:24:39;4.50;;;3.33;;
39738;SDS011;25422;48.286;8.484;2022-12-29T12:35:23;5.53;;;4.32;;
39738;SDS011;25422;48.286;8.484;2022-12-29T12:38:06;6.75;;;4.88;;
39738;SDS011;25422;48.286;8.484;2022-12-29T12:40:58;9.88;;;6.43;;
39738;SDS011;25422;48.286;8.484;2022-12-29T12:43:40;9.50;;;6.13;;
39738;SDS011;25422;48.286;8.484;2022-12-29T12:54:28;6.55;;;4.05;;
39738;SDS011;25422;48.286;8.484;2022-12-29T12:59:52;9.70;;;4.57;;
39738;SDS011;25422;48.286;8.484;2022-12-29T13:02:36;6.38;;;3.13;;
39738;SDS011;25422;48.286;8.484;2022-12-29T13:11:17;6.53;;;2.20;;
39738;SDS011;25422;48.286;8.484;2022-12-29T13:16:46;3.42;;;1.90;;
39738;SDS011;25422;48.286;8.484;2022-12-29T13:19:23;5.43;;;2.35;;
39738;SDS011;25422;48.286;8.484;2022-12-29T13:22:10;4.88;;;2.65;;
39738;SDS011;25422;48.286;8.484;2022-12-29T13:24:47;5.60;;;2.60;;
39738;SDS011;25422;48.286;8.484;2022-12-29T13:35:24;2.95;;;2.50;;
39738;SDS011;25422;48.286;8.484;2022-12-29T13:38:11;7.03;;;3.20;;
39738;SDS011;25422;48.286;8.484;2022-12-29T13:40:43;3.30;;;2.30;;
39738;SDS011;25422;48.286;8.484;2022-12-29T13:43:13;4.97;;;2.65;;
39738;SDS011;25422;48.286;8.484;2022-12-29T13:45:40;4.13;;;2.47;;
39738;SDS011;25422;48.286;8.484;2022-12-29T13:48:20;3.08;;;2.60;;
39738;SDS011;25422;48.286;8.484;2022-12-29T13:50:53;3.92;;;2.00;;
39738;SDS011;25422;48.286;8.484;2022-12-29T13:53:30;4.25;;;2.42;;
39738;SDS011;25422;48.286;8.484;2022-12-29T13:56:21;8.40;;;2.45;;
39738;SDS011;25422;48.286;8.484;2022-12-29T14:03:58;5.43;;;2.47;;
39738;SDS011;25422;48.286;8.484;2022-12-29T14:06:31;7.45;;;3.80;;
39738;SDS011;25422;48.286;8.484;2022-12-29T14:09:06;4.25;;;3.45;;
39738;SDS011;25422;48.286;8.484;2022-12-29T14:12:00;3.50;;;2.15;;
39738;SDS011;25422;48.286;8.484;2022-12-29T14:14:27;3.92;;;2.10;;
39738;SDS011;25422;48.286;8.484;2022-12-29T14:17:01;5.18;;;2.88;;
39738;SDS011;25422;48.286;8.484;2022-12-29T14:19:36;4.22;;;2.05;;
39738;SDS011;25422;48.286;8.484;2022-12-29T14:22:07;4.72;;;2.90;;
39738;SDS011;25422;48.286;8.484;2022-12-29T14:34:46;3.13;;;2.13;;
39738;SDS011;25422;48.286;8.484;2022-12-29T14:37:25;4.05;;;1.60;;
39738;SDS011;25422;48.286;8.484;2022-12-29T14:40:04;2.00;;;1.50;;
39738;SDS011;25422;48.286;8.484;2022-12-29T14:42:30;4.30;;;2.53;;
39738;SDS011;25422;48.286;8.484;2022-12-29T14:44:58;3.53;;;2.40;;
39738;SDS011;25422;48.286;8.484;2022-12-29T14:50:11;1.95;;;1.55;;
39738;SDS011;25422;48.286;8.484;2022-12-29T14:58:19;8.15;;;3.10;;
39738;SDS011;25422;48.286;8.484;2022-12-29T15:00:57;5.35;;;3.05;;
39738;SDS011;25422;48.286;8.484;2022-12-29T15:03:35;2.47;;;2.13;;
39738;SDS011;25422;48.286;8.484;2022-12-29T15:06:10;6.82;;;2.60;;
39738;SDS011;25422;48.286;8.484;2022-12-29T15:08:39;4.25;;;2.42;;
39738;SDS011;25422;48.286;8.484;2022-12-29T15:11:15;5.80;;;2.40;;
39738;SDS011;25422;48.286;8.484;2022-12-29T15:13:43;2.80;;;2.13;;
39738;SDS011;25422;48.286;8.484;2022-12-29T15:16:29;2.53;;;2.08;;
39738;SDS011;25422;48.286;8.484;2022-12-29T15:18:56;2.72;;;1.75;;
39738;SDS011;25422;48.286;8.484;2022-12-29T15:21:24;3.17;;;2.00;;
39738;SDS011;25422;48.286;8.484;2022-12-29T15:23:52;2.22;;;2.03;;
39738;SDS011;25422;48.286;8.484;2022-12-29T15:26:18;7.72;;;3.15;;
39738;SDS011;25422;48.286;8.484;2022-12-29T15:28:47;5.95;;;4.47;;
39738;SDS011;25422;48.286;8.484;2022-12-29T15:33:43;9.10;;;4.25;;
39738;SDS011;25422;48.286;8.484;2022-12-29T15:36:13;8.52;;;4.35;;
39738;SDS011;25422;48.286;8.484;2022-12-29T15:38:44;3.78;;;2.70;;
39738;SDS011;25422;48.286;8.484;2022-12-29T15:41:21;4.63;;;3.20;;
39738;SDS011;25422;48.286;8.484;2022-12-29T15:46:29;3.70;;;2.25;;
39738;SDS011;25422;48.286;8.484;2022-12-29T15:48:56;4.15;;;2.70;;
39738;SDS011;25422;48.286;8.484;2022-12-29T15:51:28;4.80;;;2.70;;
39738;SDS011;25422;48.286;8.484;2022-12-29T15:53:55;4.43;;;3.42;;
39738;SDS011;25422;48.286;8.484;2022-12-29T15:56:22;5.57;;;3.40;;
39738;SDS011;25422;48.286;8.484;2022-12-29T15:58:48;5.28;;;2.80;;
39738;SDS011;25422;48.286;8.484;2022-12-29T16:01:20;2.42;;;2.03;;
39738;SDS011;25422;48.286;8.484;2022-12-29T16:03:52;2.33;;;1.88;;
39738;SDS011;25422;48.286;8.484;2022-12-29T16:06:26;2.00;;;1.80;;
39738;SDS011;25422;48.286;8.484;2022-12-29T16:09:00;2.17;;;1.88;;
39738;SDS011;25422;48.286;8.484;2022-12-29T16:11:38;4.60;;;2.00;;
39738;SDS011;25422;48.286;8.484;2022-12-29T16:14:07;2.05;;;1.80;;
39738;SDS011;25422;48.286;8.484;2022-12-29T16:17:03;2.72;;;1.90;;
39738;SDS011;25422;48.286;8.484;2022-12-29T16:19:32;3.05;;;2.17;;
39738;SDS011;25422;48.286;8.484;2022-12-29T16:22:03;2.80;;;1.80;;
39738;SDS011;25422;48.286;8.484;2022-12-29T16:24:36;5.10;;;2.30;;
39738;SDS011;25422;48.286;8.484;2022-12-29T16:29:48;9.23;;;3.67;;
39738;SDS011;25422;48.286;8.484;2022-12-29T16:32:23;8.85;;;6.43;;
39738;SDS011;25422;48.286;8.484;2022-12-29T16:34:52;5.35;;;3.85;;
39738;SDS011;25422;48.286;8.484;2022-12-29T16:37:34;5.20;;;2.70;;
39738;SDS011;25422;48.286;8.484;2022-12-29T16:42:53;4.93;;;3.03;;
39738;SDS011;25422;48.286;8.484;2022-12-29T16:48:32;3.42;;;2.38;;
39738;SDS011;25422;48.286;8.484;2022-12-29T16:50:32;3.08;;;2.35;;
39738;SDS011;25422;48.286;8.484;2022-12-29T16:53:00;2.95;;;2.20;;
39738;SDS011;25422;48.286;8.484;2022-12-29T16:55:28;3.67;;;2.40;;
39738;SDS011;25422;48.286;8.484;2022-12-29T16:57:54;5.22;;;2.22;;
39738;SDS011;25422;48.286;8.484;2022-12-29T17:00:25;7.63;;;4.93;;
39738;SDS011;25422;48.286;8.484;2022-12-29T17:02:54;8.13;;;3.20;;
39738;SDS011;25422;48.286;8.484;2022-12-29T17:05:23;10.98;;;6.20;;
39738;SDS011;25422;48.286;8.484;2022-12-29T17:07:49;5.97;;;3.70;;
39738;SDS011;25422;48.286;8.484;2022-12-29T17:10:16;3.50;;;3.15;;
39738;SDS011;25422;48.286;8.484;2022-12-29T17:12:42;4.32;;;2.40;;
39738;SDS011;25422;48.286;8.484;2022-12-29T17:15:24;5.85;;;3.22;;
39738;SDS011;25422;48.286;8.484;2022-12-29T17:17:53;5.10;;;3.67;;
39738;SDS011;25422;48.286;8.484;2022-12-29T17:20:21;2.65;;;1.90;;
39738;SDS011;25422;48.286;8.484;2022-12-29T17:22:48;2.95;;;2.17;;
39738;SDS011;25422;48.286;8.484;2022-12-29T17:25:17;5.47;;;2.55;;